createdAt,value
2023-09-08T00:01:00.097Z,5.75
2023-09-08T00:03:27.790Z,5.55
2023-09-08T00:05:55.330Z,6.25
2023-09-08T00:08:25.930Z,6.50
2023-09-08T00:10:53.616Z,5.53
2023-09-08T00:13:23.466Z,5.18
2023-09-08T00:15:51.759Z,5.78
2023-09-08T00:18:19.300Z,5.97
2023-09-08T00:20:46.882Z,6.60
2023-09-08T00:23:14.575Z,4.88
2023-09-08T00:25:42.292Z,5.90
2023-09-08T00:28:09.766Z,5.97
2023-09-08T00:30:37.300Z,6.32
2023-09-08T00:33:10.648Z,6.22
2023-09-08T00:35:38.255Z,6.88
2023-09-08T00:38:06.179Z,7.18
2023-09-08T00:40:34.395Z,6.25
2023-09-08T00:43:01.891Z,6.38
2023-09-08T00:45:31.213Z,9.18
2023-09-08T00:47:59.621Z,6.90
2023-09-08T00:50:27.266Z,7.40
2023-09-08T00:52:54.807Z,6.38
2023-09-08T00:55:22.509Z,7.28
2023-09-08T00:57:50.035Z,7.97
2023-09-08T01:00:17.692Z,7.25
2023-09-08T01:02:48.262Z,8.13
2023-09-08T01:05:16.246Z,6.88
2023-09-08T01:07:44.192Z,6.95
2023-09-08T01:10:12.000Z,7.00
2023-09-08T01:12:39.607Z,6.15
2023-09-08T01:15:07.706Z,7.45
2023-09-08T01:17:38.306Z,6.93
2023-09-08T01:20:14.837Z,7.25
2023-09-08T01:23:04.639Z,7.05
2023-09-08T01:25:33.351Z,6.38
2023-09-08T01:28:03.218Z,7.78
2023-09-08T01:30:34.388Z,6.50
2023-09-08T01:33:02.320Z,6.88
2023-09-08T01:35:30.139Z,6.13
2023-09-08T01:37:57.723Z,6.60
2023-09-08T01:40:25.326Z,6.47
2023-09-08T01:42:53.476Z,5.57
2023-09-08T01:45:21.153Z,6.65
2023-09-08T01:47:48.791Z,4.95
2023-09-08T01:50:23.050Z,4.82
2023-09-08T01:52:50.787Z,6.43
2023-09-08T01:55:18.534Z,5.63
2023-09-08T01:57:46.302Z,5.57
2023-09-08T02:00:14.124Z,5.97
2023-09-08T02:02:41.870Z,3.67
2023-09-08T02:05:10.285Z,4.00
2023-09-08T02:07:37.956Z,3.80
2023-09-08T02:10:05.786Z,3.60
2023-09-08T02:12:33.504Z,3.33
2023-09-08T02:15:01.763Z,3.78
2023-09-08T02:17:29.240Z,5.22
2023-09-08T02:19:56.852Z,4.20
2023-09-08T02:22:24.301Z,3.50
2023-09-08T02:24:53.642Z,4.13
2023-09-08T02:27:21.168Z,4.25
2023-09-08T02:29:48.635Z,4.63
2023-09-08T02:32:16.139Z,4.65
2023-09-08T02:34:44.373Z,4.25
2023-09-08T02:37:11.918Z,4.75
2023-09-08T02:39:39.484Z,3.40
2023-09-08T02:42:07.013Z,5.57
2023-09-08T02:44:37.067Z,5.20
2023-09-08T02:47:06.820Z,3.20
2023-09-08T02:49:34.553Z,3.28
2023-09-08T02:52:02.090Z,3.78
2023-09-08T02:54:29.687Z,3.63
2023-09-08T02:56:57.536Z,3.25
2023-09-08T02:59:25.005Z,3.25
2023-09-08T03:01:52.566Z,3.15
2023-09-08T03:04:20.458Z,3.58
2023-09-08T03:06:47.977Z,3.25
2023-09-08T03:09:15.452Z,3.97
2023-09-08T03:11:43.090Z,3.40
2023-09-08T03:14:10.735Z,2.92
2023-09-08T03:16:38.423Z,3.58
2023-09-08T03:19:06.086Z,3.40
2023-09-08T03:21:33.585Z,2.97
2023-09-08T03:24:01.408Z,2.80
2023-09-08T03:26:29.002Z,3.47
2023-09-08T03:28:56.465Z,3.22
2023-09-08T03:31:24.130Z,4.07
2023-09-08T03:33:52.193Z,3.58
2023-09-08T03:36:20.347Z,3.15
2023-09-08T03:38:48.207Z,3.38
2023-09-08T03:41:16.562Z,3.05
2023-09-08T03:43:44.005Z,2.65
2023-09-08T03:46:11.691Z,5.00
2023-09-08T03:48:39.289Z,3.47
2023-09-08T03:51:06.788Z,3.78
2023-09-08T03:53:34.536Z,4.18
2023-09-08T03:56:02.781Z,5.88
2023-09-08T03:58:30.391Z,3.78
2023-09-08T04:00:58.395Z,5.15
2023-09-08T04:03:26.104Z,3.75
2023-09-08T04:05:53.714Z,3.22
2023-09-08T04:08:21.253Z,4.53
2023-09-08T04:10:48.816Z,5.25
2023-09-08T04:13:16.430Z,4.57
2023-09-08T04:15:43.989Z,4.88
2023-09-08T04:18:12.225Z,4.07
2023-09-08T04:20:39.797Z,3.90
2023-09-08T04:23:07.380Z,4.97
2023-09-08T04:25:35.034Z,5.50
2023-09-08T04:28:02.565Z,3.63
2023-09-08T04:30:30.054Z,4.22
2023-09-08T04:32:57.758Z,3.90
2023-09-08T04:35:28.058Z,5.47
2023-09-08T04:37:55.602Z,6.20
2023-09-08T04:40:23.243Z,5.15
2023-09-08T04:42:51.871Z,5.88
2023-09-08T04:45:19.412Z,7.60
2023-09-08T04:47:48.663Z,5.75
2023-09-08T04:50:16.346Z,5.32
2023-09-08T04:52:45.056Z,7.45
2023-09-08T04:55:12.656Z,6.40
2023-09-08T04:57:40.587Z,7.78
2023-09-08T05:00:08.541Z,6.20
2023-09-08T05:02:36.385Z,7.28
2023-09-08T05:05:04.060Z,7.55
2023-09-08T05:07:31.559Z,6.50
2023-09-08T05:09:59.088Z,5.85
2023-09-08T05:12:26.766Z,7.40
2023-09-08T05:14:58.268Z,6.50
2023-09-08T05:17:26.015Z,6.85
2023-09-08T05:19:53.539Z,8.27
2023-09-08T05:22:21.046Z,7.63
2023-09-08T05:24:48.633Z,8.57
2023-09-08T05:27:16.128Z,7.65
2023-09-08T05:29:43.756Z,8.00
2023-09-08T05:32:11.284Z,10.55
2023-09-08T05:34:39.488Z,10.60
2023-09-08T05:37:07.365Z,8.23
2023-09-08T05:39:34.923Z,10.20
2023-09-08T05:42:02.707Z,10.15
2023-09-08T05:44:30.242Z,11.73
2023-09-08T05:46:57.930Z,9.63
2023-09-08T05:49:25.592Z,9.25
2023-09-08T05:51:53.155Z,8.43
2023-09-08T05:54:23.584Z,7.32
2023-09-08T05:56:51.054Z,7.22
2023-09-08T05:59:18.590Z,8.25
2023-09-08T06:01:48.083Z,6.43
2023-09-08T06:04:16.177Z,7.80
2023-09-08T06:06:43.746Z,7.25
2023-09-08T06:09:13.818Z,5.80
2023-09-08T06:11:41.303Z,7.32
2023-09-08T06:14:08.809Z,6.78
2023-09-08T06:16:37.344Z,7.57
2023-09-08T06:19:05.091Z,6.88
2023-09-08T06:21:32.661Z,7.25
2023-09-08T06:24:00.241Z,5.70
2023-09-08T06:26:28.041Z,6.32
2023-09-08T06:28:55.593Z,9.32
2023-09-08T06:31:23.118Z,10.15
2023-09-08T06:33:53.790Z,8.98
2023-09-08T06:36:21.466Z,8.05
2023-09-08T06:38:49.059Z,7.18
2023-09-08T06:41:16.603Z,7.93
2023-09-08T06:43:44.574Z,6.22
2023-09-08T06:46:12.187Z,7.70
2023-09-08T06:48:39.713Z,5.68
2023-09-08T06:51:07.297Z,4.38
2023-09-08T06:53:35.519Z,4.65
2023-09-08T06:56:02.977Z,3.90
2023-09-08T06:58:30.782Z,3.33
2023-09-08T07:00:58.535Z,3.03
2023-09-08T07:03:28.364Z,2.55
2023-09-08T07:05:56.164Z,1.75
2023-09-08T07:08:23.668Z,1.08
2023-09-08T07:10:53.912Z,1.63
2023-09-08T07:13:24.181Z,1.02
2023-09-08T07:15:52.084Z,1.73
2023-09-08T07:18:20.036Z,2.67
2023-09-08T07:20:51.380Z,1.15
2023-09-08T07:23:20.062Z,1.25
2023-09-08T07:25:51.227Z,0.70
2023-09-08T07:28:19.783Z,1.05
2023-09-08T07:30:48.394Z,0.88
2023-09-08T07:33:16.238Z,0.45
2023-09-08T07:35:44.344Z,0.68
2023-09-08T07:38:17.127Z,1.25
2023-09-08T07:43:12.174Z,1.27
2023-09-08T07:45:41.925Z,1.65
2023-09-08T07:48:10.131Z,1.23
2023-09-08T07:50:37.876Z,1.75
2023-09-08T07:53:05.608Z,0.85
2023-09-08T07:55:33.207Z,0.40
2023-09-08T07:58:00.837Z,1.25
2023-09-08T08:00:29.257Z,1.60
2023-09-08T08:02:57.727Z,0.93
2023-09-08T08:05:27.199Z,1.80
2023-09-08T08:07:54.789Z,1.15
2023-09-08T08:10:22.508Z,0.63
2023-09-08T08:12:50.140Z,0.98
2023-09-08T08:15:18.232Z,0.50
2023-09-08T08:17:46.055Z,0.52
2023-09-08T08:20:19.438Z,0.77
2023-09-08T08:22:47.834Z,0.77
2023-09-08T08:25:15.691Z,0.85
2023-09-08T08:27:43.503Z,0.73
2023-09-08T08:30:13.317Z,0.65
2023-09-08T08:32:41.243Z,0.75
2023-09-08T08:35:08.988Z,0.32
2023-09-08T08:37:36.559Z,1.02
2023-09-08T08:40:05.237Z,0.47
2023-09-08T08:42:33.481Z,0.40
2023-09-08T08:45:02.004Z,0.60
2023-09-08T08:47:33.156Z,0.43
2023-09-08T08:50:01.355Z,0.50
2023-09-08T08:52:29.917Z,0.38
2023-09-08T08:54:57.562Z,0.43
2023-09-08T08:57:25.611Z,0.70
2023-09-08T08:59:55.909Z,0.47
2023-09-08T09:02:24.627Z,0.60
2023-09-08T09:04:52.912Z,0.45
2023-09-08T09:07:20.781Z,0.47
2023-09-08T09:09:48.458Z,1.33
2023-09-08T09:12:15.935Z,0.75
2023-09-08T09:14:47.869Z,1.23
2023-09-08T09:17:16.336Z,0.93
2023-09-08T09:19:43.912Z,1.13
2023-09-08T09:22:11.533Z,0.40
2023-09-08T09:24:42.702Z,0.50
2023-09-08T09:27:10.619Z,1.83
2023-09-08T09:29:51.424Z,1.15
2023-09-08T09:32:19.040Z,1.48
2023-09-08T09:34:51.870Z,1.00
2023-09-08T09:39:51.199Z,0.40
2023-09-08T09:42:19.014Z,1.03
2023-09-08T09:44:46.629Z,0.65
2023-09-08T09:47:15.327Z,0.38
2023-09-08T09:49:46.817Z,0.35
2023-09-08T09:52:15.783Z,0.38
2023-09-08T09:54:44.327Z,0.60
2023-09-08T09:57:15.935Z,0.38
2023-09-08T09:59:43.800Z,0.10
2023-09-08T10:02:14.838Z,1.20
2023-09-08T10:04:43.291Z,0.90
2023-09-08T10:07:11.234Z,0.73
2023-09-08T10:09:38.806Z,0.30
2023-09-08T10:12:07.154Z,0.30
2023-09-08T10:14:37.262Z,1.30
2023-09-08T10:17:07.582Z,1.25
2023-09-08T10:19:45.590Z,1.05
2023-09-08T10:22:16.650Z,0.30
2023-09-08T10:24:45.106Z,0.30
2023-09-08T10:27:13.304Z,1.17
2023-09-08T10:29:41.313Z,0.50
2023-09-08T10:32:11.074Z,0.50
2023-09-08T10:34:39.219Z,0.30
2023-09-08T10:37:20.223Z,0.35
2023-09-08T10:39:47.919Z,1.02
2023-09-08T10:42:18.128Z,0.47
2023-09-08T10:44:45.940Z,1.60
2023-09-08T10:47:13.427Z,0.65
2023-09-08T10:49:41.010Z,1.20
2023-09-08T10:52:12.645Z,0.45
2023-09-08T10:54:44.272Z,0.88
2023-09-08T10:57:15.816Z,0.73
2023-09-08T10:59:58.384Z,0.90
2023-09-08T11:02:40.568Z,0.55
2023-09-08T11:05:12.402Z,0.10
2023-09-08T11:07:40.390Z,0.32
2023-09-08T11:10:08.769Z,0.90
2023-09-08T11:12:36.417Z,0.63
2023-09-08T11:15:10.108Z,0.35
2023-09-08T11:17:41.161Z,0.60
2023-09-08T11:20:10.670Z,0.00
2023-09-08T11:22:39.287Z,0.10
2023-09-08T11:25:08.980Z,0.60
2023-09-08T11:27:36.628Z,1.13
2023-09-08T11:30:08.675Z,0.20
2023-09-08T11:32:37.364Z,0.03
2023-09-08T11:35:09.452Z,0.70
2023-09-08T11:37:38.619Z,0.05
2023-09-08T11:40:15.594Z,0.22
2023-09-08T11:42:46.257Z,0.10
2023-09-08T11:45:14.852Z,0.35
2023-09-08T11:47:43.249Z,0.38
2023-09-08T11:50:13.310Z,0.10
2023-09-08T11:52:42.038Z,1.05
2023-09-08T11:55:10.064Z,0.25
2023-09-08T11:57:37.684Z,0.63
2023-09-08T12:00:07.250Z,0.17
2023-09-08T12:02:38.265Z,0.10
2023-09-08T12:05:06.744Z,0.10
2023-09-08T12:07:34.269Z,0.00
2023-09-08T12:10:08.166Z,0.20
2023-09-08T12:12:35.746Z,0.55
2023-09-08T12:15:03.260Z,0.10
2023-09-08T12:17:30.867Z,0.10
2023-09-08T12:19:58.636Z,2.58
2023-09-08T12:22:26.184Z,0.70
2023-09-08T12:24:58.412Z,0.43
2023-09-08T12:27:26.221Z,0.55
2023-09-08T12:29:58.087Z,0.63
2023-09-08T12:32:26.531Z,0.00
2023-09-08T12:34:54.478Z,0.20
2023-09-08T12:37:23.559Z,0.47
2023-09-08T12:39:51.178Z,0.10
2023-09-08T12:42:20.009Z,0.28
2023-09-08T12:44:47.606Z,0.10
2023-09-08T12:47:15.815Z,0.28
2023-09-08T12:49:43.669Z,0.00
2023-09-08T12:52:12.008Z,0.20
2023-09-08T12:54:39.604Z,0.10
2023-09-08T12:57:07.300Z,0.13
2023-09-08T12:59:37.901Z,0.22
2023-09-08T13:02:05.571Z,0.22
2023-09-08T13:04:33.046Z,0.20
2023-09-08T13:07:03.802Z,0.60
2023-09-08T13:09:31.310Z,0.10
2023-09-08T13:11:58.800Z,0.30
2023-09-08T13:14:26.595Z,0.13
2023-09-08T13:16:54.168Z,0.25
2023-09-08T13:19:21.808Z,0.30
2023-09-08T13:21:50.085Z,0.15
2023-09-08T13:24:17.480Z,0.10
2023-09-08T13:26:45.145Z,0.10
2023-09-08T13:29:12.647Z,0.00
2023-09-08T13:31:41.991Z,0.00
2023-09-08T13:34:09.517Z,0.40
2023-09-08T13:36:37.021Z,0.05
2023-09-08T13:39:07.038Z,0.52
2023-09-08T13:41:51.773Z,0.32
2023-09-08T13:44:23.396Z,0.20
2023-09-08T13:46:55.890Z,0.00
2023-09-08T13:49:26.369Z,0.22
2023-09-08T13:51:57.426Z,0.13
2023-09-08T13:54:25.991Z,0.00
2023-09-08T13:57:02.222Z,0.47
2023-09-08T13:59:35.318Z,0.00
2023-09-08T14:04:40.367Z,0.00
2023-09-08T14:07:16.252Z,0.00
2023-09-08T14:09:54.881Z,0.10
2023-09-08T14:14:51.003Z,0.20
2023-09-08T14:17:18.767Z,0.35
2023-09-08T14:19:46.391Z,0.00
2023-09-08T14:22:14.281Z,0.25
2023-09-08T14:24:41.730Z,0.10
2023-09-08T14:27:09.313Z,0.00
2023-09-08T14:29:37.268Z,0.10
2023-09-08T14:32:04.873Z,0.00
2023-09-08T14:34:32.428Z,0.17
2023-09-08T14:37:00.927Z,0.57
2023-09-08T14:39:30.149Z,0.22
2023-09-08T14:41:57.698Z,0.25
2023-09-08T14:44:26.022Z,0.00
2023-09-08T14:46:53.724Z,0.00
2023-09-08T14:49:21.386Z,0.30
2023-09-08T14:51:48.961Z,0.00
2023-09-08T14:54:16.515Z,0.10
2023-09-08T14:56:44.152Z,0.25
2023-09-08T14:59:11.758Z,0.10
2023-09-08T15:01:42.377Z,0.20
2023-09-08T15:04:10.064Z,0.00
2023-09-08T15:06:37.625Z,0.10
2023-09-08T15:09:05.638Z,0.28
2023-09-08T15:11:33.212Z,0.00
2023-09-08T15:14:00.766Z,0.30
2023-09-08T15:16:28.327Z,0.00
2023-09-08T15:18:58.104Z,0.20
2023-09-08T15:21:29.212Z,0.00
2023-09-08T15:23:57.122Z,0.43
2023-09-08T15:26:27.682Z,0.43
2023-09-08T15:28:59.364Z,0.38
2023-09-08T15:31:27.122Z,0.00
2023-09-08T15:33:55.008Z,0.00
2023-09-08T15:36:22.662Z,0.47
2023-09-08T15:38:51.741Z,0.00
2023-09-08T15:41:19.458Z,0.10
2023-09-08T15:43:49.008Z,0.00
2023-09-08T15:46:16.730Z,0.28
2023-09-08T15:48:44.233Z,0.68
2023-09-08T15:51:11.693Z,0.10
2023-09-08T15:53:39.730Z,0.00
2023-09-08T15:56:07.696Z,0.65
2023-09-08T15:58:35.721Z,0.10
2023-09-08T16:01:03.560Z,0.17
2023-09-08T16:03:35.044Z,0.10
2023-09-08T16:06:03.180Z,0.10
2023-09-08T16:08:31.031Z,0.00
2023-09-08T16:10:58.566Z,0.10
2023-09-08T16:13:26.166Z,0.15
2023-09-08T16:15:53.738Z,0.10
2023-09-08T16:18:21.288Z,0.17
2023-09-08T16:20:48.886Z,0.00
2023-09-08T16:23:16.573Z,0.30
2023-09-08T16:25:44.281Z,0.00
2023-09-08T16:28:11.917Z,0.10
2023-09-08T16:30:39.511Z,0.00
2023-09-08T16:33:07.079Z,0.10
2023-09-08T16:35:35.679Z,0.03
2023-09-08T16:38:04.011Z,0.47
2023-09-08T16:40:31.559Z,0.43
2023-09-08T16:43:03.457Z,0.65
2023-09-08T16:45:31.434Z,0.10
2023-09-08T16:47:59.265Z,0.20
2023-09-08T16:50:26.854Z,0.10
2023-09-08T16:52:54.436Z,0.17
2023-09-08T16:55:21.992Z,0.10
2023-09-08T16:57:49.560Z,0.45
2023-09-08T17:00:17.665Z,0.30
2023-09-08T17:02:45.375Z,0.22
2023-09-08T17:05:17.043Z,0.20
2023-09-08T17:07:45.062Z,0.20
2023-09-08T17:10:12.961Z,0.20
2023-09-08T17:12:41.125Z,0.00
2023-09-08T17:15:09.739Z,0.10
2023-09-08T17:17:37.418Z,0.20
2023-09-08T17:20:05.424Z,0.45
2023-09-08T17:22:33.001Z,0.20
2023-09-08T17:25:00.562Z,0.00
2023-09-08T17:27:29.045Z,0.20
2023-09-08T17:29:56.725Z,0.10
2023-09-08T17:32:24.231Z,0.00
2023-09-08T17:34:51.817Z,0.00
2023-09-08T17:37:19.303Z,0.00
2023-09-08T17:39:47.088Z,0.20
2023-09-08T17:42:14.760Z,0.32
2023-09-08T17:44:42.354Z,0.00
2023-09-08T17:47:10.044Z,0.20
2023-09-08T17:49:37.647Z,0.00
2023-09-08T17:52:05.457Z,0.15
2023-09-08T17:54:34.076Z,0.30
2023-09-08T17:57:02.011Z,0.22
2023-09-08T17:59:31.454Z,0.20
2023-09-08T18:01:59.293Z,0.28
2023-09-08T18:04:27.513Z,0.10
2023-09-08T18:06:55.910Z,0.00
2023-09-08T18:09:23.756Z,0.10
2023-09-08T18:11:53.039Z,0.17
2023-09-08T18:14:20.513Z,0.20
2023-09-08T18:16:48.050Z,0.35
2023-09-08T18:19:15.869Z,0.20
2023-09-08T18:21:43.603Z,0.00
2023-09-08T18:24:11.374Z,0.00
2023-09-08T18:26:39.020Z,0.25
2023-09-08T18:29:06.701Z,0.00
2023-09-08T18:31:34.572Z,0.00
2023-09-08T18:34:02.342Z,0.00
2023-09-08T18:36:30.960Z,0.00
2023-09-08T18:38:58.557Z,0.20
2023-09-08T18:41:26.257Z,0.13
2023-09-08T18:43:54.065Z,0.05
2023-09-08T18:46:21.637Z,0.28
2023-09-08T18:48:49.995Z,0.35
2023-09-08T18:51:17.558Z,0.00
2023-09-08T18:53:45.171Z,0.13
2023-09-08T18:56:13.086Z,0.00
2023-09-08T18:58:40.742Z,0.10
2023-09-08T19:01:08.616Z,0.00
2023-09-08T19:03:37.087Z,0.25
2023-09-08T19:06:06.023Z,0.20
2023-09-08T19:08:33.536Z,0.00
2023-09-08T19:11:01.589Z,0.00
2023-09-08T19:13:29.294Z,0.00
2023-09-08T19:15:59.837Z,0.00
2023-09-08T19:18:27.659Z,0.17
2023-09-08T19:20:55.217Z,0.32
2023-09-08T19:23:25.356Z,0.08
2023-09-08T19:25:53.219Z,0.13
2023-09-08T19:28:20.893Z,0.32
2023-09-08T19:30:49.686Z,0.00
2023-09-08T19:33:17.531Z,0.00
2023-09-08T19:35:45.149Z,0.08
2023-09-08T19:38:12.857Z,0.47
2023-09-08T19:40:40.381Z,0.10
2023-09-08T19:43:07.915Z,0.10
2023-09-08T19:45:37.768Z,0.10
2023-09-08T19:48:06.263Z,0.32
2023-09-08T19:50:35.460Z,0.00
2023-09-08T19:53:02.978Z,0.00
2023-09-08T19:55:30.540Z,0.10
2023-09-08T19:57:59.487Z,0.20
2023-09-08T20:00:27.226Z,0.03
2023-09-08T20:02:58.274Z,0.10
2023-09-08T20:05:25.932Z,0.10
2023-09-08T20:07:53.390Z,0.20
2023-09-08T20:10:22.009Z,0.20
2023-09-08T20:12:51.541Z,0.00
2023-09-08T20:15:19.088Z,0.10
2023-09-08T20:17:47.985Z,0.05
2023-09-08T20:20:15.649Z,0.00
2023-09-08T20:22:43.432Z,0.00
2023-09-08T20:25:11.316Z,0.00
2023-09-08T20:27:38.904Z,0.10
2023-09-08T20:30:07.054Z,0.10
2023-09-08T20:32:37.504Z,0.00
2023-09-08T20:35:05.234Z,0.15
2023-09-08T20:37:32.761Z,0.00
2023-09-08T20:40:00.467Z,0.00
2023-09-08T20:42:28.054Z,0.10
2023-09-08T20:44:55.655Z,0.10
2023-09-08T20:47:23.176Z,0.00
2023-09-08T20:49:50.657Z,0.15
2023-09-08T20:52:18.185Z,0.00
2023-09-08T20:54:48.875Z,0.00
2023-09-08T20:57:16.417Z,0.00
2023-09-08T20:59:43.943Z,0.35
2023-09-08T21:02:11.703Z,0.00
2023-09-08T21:04:41.442Z,0.25
2023-09-08T21:07:08.958Z,0.10
2023-09-08T21:09:36.533Z,0.00
2023-09-08T21:12:06.860Z,0.20
2023-09-08T21:14:34.474Z,0.00
2023-09-08T21:17:02.640Z,0.00
2023-09-08T21:19:30.569Z,0.05
2023-09-08T21:21:58.375Z,0.40
2023-09-08T21:24:26.342Z,0.13
2023-09-08T21:26:53.868Z,0.10
2023-09-08T21:29:21.475Z,0.00
2023-09-08T21:31:50.841Z,0.00
2023-09-08T21:34:22.683Z,0.00
2023-09-08T21:36:50.205Z,0.28
2023-09-08T21:39:17.883Z,0.20
2023-09-08T21:41:45.335Z,0.52
2023-09-08T21:44:12.908Z,0.10
2023-09-08T21:46:40.434Z,0.10
2023-09-08T21:49:09.966Z,0.45
2023-09-08T21:51:37.646Z,0.45
2023-09-08T21:54:05.521Z,0.77
2023-09-08T21:56:33.119Z,0.38
2023-09-08T21:59:00.576Z,0.55
2023-09-08T22:01:28.301Z,0.70
2023-09-08T22:03:56.035Z,0.60
2023-09-08T22:06:24.210Z,0.22
2023-09-08T22:08:51.778Z,0.80
2023-09-08T22:11:19.340Z,0.45
2023-09-08T22:13:50.174Z,0.43
2023-09-08T22:16:17.912Z,0.32
2023-09-08T22:18:46.287Z,0.28
2023-09-08T22:21:13.816Z,0.10
2023-09-08T22:23:41.413Z,0.30
2023-09-08T22:26:15.611Z,0.20
2023-09-08T22:28:45.467Z,0.10
2023-09-08T22:31:14.269Z,0.63
2023-09-08T22:33:45.183Z,0.20
2023-09-08T22:36:12.772Z,0.30
2023-09-08T22:38:40.296Z,0.45
2023-09-08T22:41:07.941Z,0.30
2023-09-08T22:43:35.767Z,0.40
2023-09-08T22:46:03.756Z,0.00
2023-09-08T22:48:31.443Z,1.67
2023-09-08T22:50:59.012Z,2.63
2023-09-08T22:53:26.719Z,1.17
2023-09-08T22:55:54.353Z,1.40
2023-09-08T22:58:21.943Z,2.33
2023-09-08T23:00:50.186Z,0.57
2023-09-08T23:03:18.413Z,0.73
2023-09-08T23:05:45.921Z,0.47
2023-09-08T23:08:13.418Z,0.30
2023-09-08T23:10:41.060Z,0.32
2023-09-08T23:13:08.901Z,0.22
2023-09-08T23:15:36.532Z,0.10
2023-09-08T23:18:05.139Z,0.10
2023-09-08T23:20:32.781Z,0.10
2023-09-08T23:23:00.657Z,0.20
2023-09-08T23:25:28.455Z,0.13
2023-09-08T23:27:56.081Z,0.20
2023-09-08T23:30:23.692Z,0.55
2023-09-08T23:32:51.452Z,0.68
2023-09-08T23:35:18.959Z,0.40
2023-09-08T23:37:46.510Z,0.63
2023-09-08T23:40:14.308Z,0.30
2023-09-08T23:42:41.954Z,0.38
2023-09-08T23:45:09.686Z,0.40
2023-09-08T23:47:37.366Z,0.13
2023-09-08T23:50:05.072Z,0.20
2023-09-08T23:52:32.737Z,0.60
2023-09-08T23:55:00.492Z,0.13
2023-09-08T23:57:28.073Z,0.13
2023-09-08T23:59:55.693Z,0.45
